sensor_id;sensor_type;location;lat;lon;timestamp;temperature;humidity
14154;DHT22;7157;53.144;7.570;2024-02-21T00:03:13;10.35;111.82
14154;DHT22;7157;53.144;7.570;2024-02-21T00:13:16;10.29;112.36
14154;DHT22;7157;53.144;7.570;2024-02-21T00:23:20;10.13;113.13
14154;DHT22;7157;53.144;7.570;2024-02-21T00:33:23;10.20;112.55
14154;DHT22;7157;53.144;7.570;2024-02-21T00:43:28;10.22;112.47
14154;DHT22;7157;53.144;7.570;2024-02-21T00:53:31;10.33;112.23
14154;DHT22;7157;53.144;7.570;2024-02-21T01:03:35;10.03;113.55
14154;DHT22;7157;53.144;7.570;2024-02-21T01:13:38;9.78;115.69
14154;DHT22;7157;53.144;7.570;2024-02-21T01:23:42;9.93;115.22
14154;DHT22;7157;53.144;7.570;2024-02-21T01:33:45;10.01;114.50
14154;DHT22;7157;53.144;7.570;2024-02-21T01:43:49;10.12;113.65
14154;DHT22;7157;53.144;7.570;2024-02-21T01:53:53;10.18;113.58
14154;DHT22;7157;53.144;7.570;2024-02-21T02:03:59;10.10;113.42
14154;DHT22;7157;53.144;7.570;2024-02-21T02:14:02;10.21;113.08
14154;DHT22;7157;53.144;7.570;2024-02-21T02:24:06;10.06;113.67
14154;DHT22;7157;53.144;7.570;2024-02-21T02:34:09;9.46;118.81
14154;DHT22;7157;53.144;7.570;2024-02-21T02:44:14;9.31;118.99
14154;DHT22;7157;53.144;7.570;2024-02-21T02:54:17;9.33;118.99
14154;DHT22;7157;53.144;7.570;2024-02-21T03:04:21;9.22;118.99
14154;DHT22;7157;53.144;7.570;2024-02-21T03:14:24;9.27;118.99
14154;DHT22;7157;53.144;7.570;2024-02-21T03:24:31;9.10;118.99
14154;DHT22;7157;53.144;7.570;2024-02-21T03:34:34;9.21;118.99
14154;DHT22;7157;53.144;7.570;2024-02-21T03:44:38;9.19;118.99
14154;DHT22;7157;53.144;7.570;2024-02-21T03:54:41;9.17;118.99
14154;DHT22;7157;53.144;7.570;2024-02-21T04:04:45;9.16;118.99
14154;DHT22;7157;53.144;7.570;2024-02-21T04:14:49;9.15;118.99
14154;DHT22;7157;53.144;7.570;2024-02-21T04:24:53;9.20;118.99
14154;DHT22;7157;53.144;7.570;2024-02-21T04:34:56;9.23;118.99
14154;DHT22;7157;53.144;7.570;2024-02-21T04:45:00;9.17;118.99
14154;DHT22;7157;53.144;7.570;2024-02-21T04:55:04;9.20;118.99
14154;DHT22;7157;53.144;7.570;2024-02-21T05:05:08;9.26;118.99
14154;DHT22;7157;53.144;7.570;2024-02-21T05:15:11;9.16;118.99
14154;DHT22;7157;53.144;7.570;2024-02-21T05:25:15;9.27;118.99
14154;DHT22;7157;53.144;7.570;2024-02-21T05:35:18;9.25;118.99
14154;DHT22;7157;53.144;7.570;2024-02-21T05:45:24;9.24;118.99
14154;DHT22;7157;53.144;7.570;2024-02-21T05:55:27;9.23;118.99
14154;DHT22;7157;53.144;7.570;2024-02-21T06:05:35;9.21;118.99
14154;DHT22;7157;53.144;7.570;2024-02-21T06:15:38;9.20;118.99
14154;DHT22;7157;53.144;7.570;2024-02-21T06:25:42;9.19;118.99
14154;DHT22;7157;53.144;7.570;2024-02-21T06:35:45;9.30;118.99
14154;DHT22;7157;53.144;7.570;2024-02-21T06:45:50;9.38;118.99
14154;DHT22;7157;53.144;7.570;2024-02-21T06:55:53;9.36;118.99
14154;DHT22;7157;53.144;7.570;2024-02-21T07:05:57;9.30;118.99
14154;DHT22;7157;53.144;7.570;2024-02-21T07:16:00;9.26;118.99
14154;DHT22;7157;53.144;7.570;2024-02-21T07:26:05;9.29;118.99
14154;DHT22;7157;53.144;7.570;2024-02-21T07:36:10;9.34;118.99
14154;DHT22;7157;53.144;7.570;2024-02-21T07:46:15;9.38;118.99
14154;DHT22;7157;53.144;7.570;2024-02-21T07:56:18;9.26;118.99
14154;DHT22;7157;53.144;7.570;2024-02-21T08:06:22;9.50;118.99
14154;DHT22;7157;53.144;7.570;2024-02-21T08:16:26;9.64;118.99
14154;DHT22;7157;53.144;7.570;2024-02-21T08:26:30;9.71;118.99
14154;DHT22;7157;53.144;7.570;2024-02-21T08:36:34;9.99;118.99
14154;DHT22;7157;53.144;7.570;2024-02-21T08:46:39;9.93;118.99
14154;DHT22;7157;53.144;7.570;2024-02-21T08:56:42;9.45;118.99
14154;DHT22;7157;53.144;7.570;2024-02-21T09:06:46;9.55;118.99
14154;DHT22;7157;53.144;7.570;2024-02-21T09:16:49;9.38;118.99
14154;DHT22;7157;53.144;7.570;2024-02-21T09:26:53;9.39;118.99
14154;DHT22;7157;53.144;7.570;2024-02-21T09:36:56;9.69;118.99
14154;DHT22;7157;53.144;7.570;2024-02-21T09:47:02;9.66;118.99
14154;DHT22;7157;53.144;7.570;2024-02-21T09:57:06;9.69;118.99
14154;DHT22;7157;53.144;7.570;2024-02-21T10:07:10;9.61;118.99
14154;DHT22;7157;53.144;7.570;2024-02-21T10:17:16;9.84;117.48
14154;DHT22;7157;53.144;7.570;2024-02-21T10:27:23;10.08;117.05
14154;DHT22;7157;53.144;7.570;2024-02-21T10:37:26;10.50;115.85
14154;DHT22;7157;53.144;7.570;2024-02-21T10:47:32;10.90;113.28
14154;DHT22;7157;53.144;7.570;2024-02-21T10:57:38;10.74;110.57
14154;DHT22;7157;53.144;7.570;2024-02-21T11:07:42;10.87;110.76
14154;DHT22;7157;53.144;7.570;2024-02-21T11:17:53;10.98;108.75
14154;DHT22;7157;53.144;7.570;2024-02-21T11:28:04;10.98;105.95
14154;DHT22;7157;53.144;7.570;2024-02-21T11:38:09;11.18;106.55
14154;DHT22;7157;53.144;7.570;2024-02-21T11:48:15;11.28;103.88
14154;DHT22;7157;53.144;7.570;2024-02-21T11:58:18;11.94;102.44
14154;DHT22;7157;53.144;7.570;2024-02-21T12:08:23;11.66;100.40
14154;DHT22;7157;53.144;7.570;2024-02-21T12:18:26;11.72;101.69
14154;DHT22;7157;53.144;7.570;2024-02-21T12:28:30;11.98;99.85
14154;DHT22;7157;53.144;7.570;2024-02-21T12:38:33;11.84;100.06
14154;DHT22;7157;53.144;7.570;2024-02-21T12:48:37;11.89;98.77
14154;DHT22;7157;53.144;7.570;2024-02-21T12:58:41;11.87;99.35
14154;DHT22;7157;53.144;7.570;2024-02-21T13:08:45;11.98;99.19
14154;DHT22;7157;53.144;7.570;2024-02-21T13:18:48;11.85;96.64
14154;DHT22;7157;53.144;7.570;2024-02-21T13:28:52;11.96;96.00
14154;DHT22;7157;53.144;7.570;2024-02-21T13:38:55;11.74;95.24
14154;DHT22;7157;53.144;7.570;2024-02-21T13:49:04;11.73;94.16
14154;DHT22;7157;53.144;7.570;2024-02-21T13:59:08;12.02;94.21
14154;DHT22;7157;53.144;7.570;2024-02-21T14:09:12;12.46;91.44
14154;DHT22;7157;53.144;7.570;2024-02-21T14:19:15;11.87;94.01
14154;DHT22;7157;53.144;7.570;2024-02-21T14:29:20;11.63;94.07
14154;DHT22;7157;53.144;7.570;2024-02-21T14:39:23;11.67;92.88
14154;DHT22;7157;53.144;7.570;2024-02-21T14:49:27;11.27;95.49
14154;DHT22;7157;53.144;7.570;2024-02-21T14:59:30;11.34;95.33
14154;DHT22;7157;53.144;7.570;2024-02-21T15:09:37;11.38;94.30
14154;DHT22;7157;53.144;7.570;2024-02-21T15:19:40;11.52;92.18
14154;DHT22;7157;53.144;7.570;2024-02-21T15:29:46;11.18;94.72
14154;DHT22;7157;53.144;7.570;2024-02-21T15:39:49;11.39;92.93
14154;DHT22;7157;53.144;7.570;2024-02-21T15:49:54;11.19;94.78
14154;DHT22;7157;53.144;7.570;2024-02-21T15:59:56;11.41;92.74
14154;DHT22;7157;53.144;7.570;2024-02-21T16:10:02;11.31;93.42
14154;DHT22;7157;53.144;7.570;2024-02-21T16:20:06;11.05;94.15
14154;DHT22;7157;53.144;7.570;2024-02-21T16:30:14;11.08;93.88
14154;DHT22;7157;53.144;7.570;2024-02-21T16:40:18;11.27;91.91
14154;DHT22;7157;53.144;7.570;2024-02-21T16:50:22;11.13;92.95
14154;DHT22;7157;53.144;7.570;2024-02-21T17:00:25;10.86;95.57
14154;DHT22;7157;53.144;7.570;2024-02-21T17:10:29;10.45;99.67
14154;DHT22;7157;53.144;7.570;2024-02-21T17:20:32;10.49;100.44
14154;DHT22;7157;53.144;7.570;2024-02-21T17:30:37;10.21;103.66
14154;DHT22;7157;53.144;7.570;2024-02-21T17:40:40;10.09;105.05
14154;DHT22;7157;53.144;7.570;2024-02-21T17:50:44;10.05;105.63
14154;DHT22;7157;53.144;7.570;2024-02-21T18:00:47;9.99;106.87
14154;DHT22;7157;53.144;7.570;2024-02-21T18:10:51;9.82;107.72
14154;DHT22;7157;53.144;7.570;2024-02-21T18:20:54;9.93;107.04
14154;DHT22;7157;53.144;7.570;2024-02-21T18:30:58;9.71;108.30
14154;DHT22;7157;53.144;7.570;2024-02-21T18:41:01;9.82;107.61
14154;DHT22;7157;53.144;7.570;2024-02-21T18:51:05;9.61;108.94
14154;DHT22;7157;53.144;7.570;2024-02-21T19:01:08;9.50;110.26
14154;DHT22;7157;53.144;7.570;2024-02-21T19:11:13;9.49;111.00
14154;DHT22;7157;53.144;7.570;2024-02-21T19:21:15;9.31;112.97
14154;DHT22;7157;53.144;7.570;2024-02-21T19:31:21;9.48;111.74
14154;DHT22;7157;53.144;7.570;2024-02-21T19:41:24;9.50;111.94
14154;DHT22;7157;53.144;7.570;2024-02-21T19:51:28;9.51;112.48
14154;DHT22;7157;53.144;7.570;2024-02-21T20:01:32;9.38;113.51
14154;DHT22;7157;53.144;7.570;2024-02-21T20:11:36;9.29;115.14
14154;DHT22;7157;53.144;7.570;2024-02-21T20:21:42;9.17;116.12
14154;DHT22;7157;53.144;7.570;2024-02-21T20:31:47;9.18;116.99
14154;DHT22;7157;53.144;7.570;2024-02-21T20:41:50;9.19;116.76
14154;DHT22;7157;53.144;7.570;2024-02-21T20:51:54;9.15;116.88
14154;DHT22;7157;53.144;7.570;2024-02-21T21:01:57;8.92;117.86
14154;DHT22;7157;53.144;7.570;2024-02-21T21:12:06;9.05;117.09
14154;DHT22;7157;53.144;7.570;2024-02-21T21:22:09;9.03;116.90
14154;DHT22;7157;53.144;7.570;2024-02-21T21:32:14;8.93;117.79
14154;DHT22;7157;53.144;7.570;2024-02-21T21:42:17;9.05;117.44
14154;DHT22;7157;53.144;7.570;2024-02-21T21:52:21;8.83;118.89
14154;DHT22;7157;53.144;7.570;2024-02-21T22:02:24;9.12;117.67
14154;DHT22;7157;53.144;7.570;2024-02-21T22:12:30;8.90;118.99
14154;DHT22;7157;53.144;7.570;2024-02-21T22:22:33;9.06;118.82
14154;DHT22;7157;53.144;7.570;2024-02-21T22:32:37;9.16;118.87
14154;DHT22;7157;53.144;7.570;2024-02-21T22:42:41;9.25;118.39
14154;DHT22;7157;53.144;7.570;2024-02-21T22:52:45;9.05;118.99
14154;DHT22;7157;53.144;7.570;2024-02-21T23:02:48;9.00;118.99
14154;DHT22;7157;53.144;7.570;2024-02-21T23:12:53;9.21;118.99
14154;DHT22;7157;53.144;7.570;2024-02-21T23:22:56;9.07;118.99
14154;DHT22;7157;53.144;7.570;2024-02-21T23:33:00;9.04;118.99
14154;DHT22;7157;53.144;7.570;2024-02-21T23:43:03;9.37;118.99
14154;DHT22;7157;53.144;7.570;2024-02-21T23:53:07;9.22;118.99
